Salina, KS (67401)

18:19 CST le 10 décembre 2016 (GMT -0600)
Central Salina | | Change Station

Alt. 1243 ft 38.82 °N, 97.62 °W | Updated 32 seconds ago

Clear
Ciel dégagé
38.8 ° F
Paraît 37 ° F
N
3.1
Vent Variable Vent de SSE
Gusts 4.7 mph

Aujourd'hui
Haut(e) -- | Bas -- ° F
--% Risque de précip.
Hier
Haut(e) -- | Bas -- ° F
Precip. -- pouce
Pression 29.98 pouce
Visibilité 10.0 Miles terrestres
Nuages Ciel dégagé
Refroidissement éolien 37 ° F
Point de rosée 26 ° F
Humidité 59%
Précipitations 0.03 pouce
Profondeur de la couche neigeuse Non disponible.
7:38 AM 5:08 PM
Lune gibbeuse croissante, 87% visible
METAR KSLN 102353Z 15013KT 10SM CLR 04/M04 A2995 RMK AO2 SLP152 T00441044 10061 20039 58028
Pression 29.98 pouce
Visibilité 10.0 Miles terrestres
Nuages Ciel dégagé
Refroidissement éolien 37 ° F
Point de rosée 26 ° F
Humidité 59%
Précipitations 0.03 pouce
Profondeur de la couche neigeuse Non disponible.
7:38 AM 5:08 PM
Lune gibbeuse croissante, 87% visible
METAR KSLN 102353Z 15013KT 10SM CLR 04/M04 A2995 RMK AO2 SLP152 T00441044 10061 20039 58028

10-Day Weather Forecast

Almanac

Astronomie

Dec. 10, 2016 Lever Coucher
Temps réel
Crépuscule civil
Crépuscule nautique
Crépuscule astronomique
Lune
Durée de lumière visible
Longueur du jour
Tomorrow will be .
, % of the Moon is Illuminated

Extrêmes aujourd'hui

State Highs State Lows

Community

WunderPhotos

Upload Photos

1,956,682 Photos téléchargées !

WunderBlog® & News

Nearby

Qualité de l'air

  Qualité de l'air Indice de la qualité de l'air Polluant
Not available.

Épaisseur de neige

Station Depth Altitude

Activité sismique

Ville Distance Mag. Time & Date
Minimum magnitude displayed is 2.5.

Températures des eaux côtières

Lieu Température

Stations

Stations météo à proximité

Emplacement de la station Température Refroidissement éolien Point de rosée Humidité Vent Precip. Alt. Mise à jour Type
                   

Watches & Warnings

There are currently no watches in effect.